sensor_id;sensor_type;location;lat;lon;timestamp;pressure;altitude;pressure_sealevel;temperature;humidity
26823;BME280;14852;51.910;8.878;2022-12-22T00:02:24;98787.53;;;11.12;67.47
26823;BME280;14852;51.910;8.878;2022-12-22T00:05:16;98773.72;;;11.12;67.32
26823;BME280;14852;51.910;8.878;2022-12-22T00:08:01;98783.19;;;11.13;67.53
26823;BME280;14852;51.910;8.878;2022-12-22T00:10:46;98781.09;;;11.18;67.46
26823;BME280;14852;51.910;8.878;2022-12-22T00:13:31;98772.38;;;11.19;67.28
26823;BME280;14852;51.910;8.878;2022-12-22T00:16:17;98761.13;;;11.18;67.50
26823;BME280;14852;51.910;8.878;2022-12-22T00:19:02;98765.38;;;11.19;67.88
26823;BME280;14852;51.910;8.878;2022-12-22T00:21:46;98756.75;;;11.19;67.41
26823;BME280;14852;51.910;8.878;2022-12-22T00:24:30;98754.16;;;11.19;67.31
26823;BME280;14852;51.910;8.878;2022-12-22T00:27:25;98746.13;;;11.22;67.39
26823;BME280;14852;51.910;8.878;2022-12-22T00:30:14;98741.03;;;11.20;67.60
26823;BME280;14852;51.910;8.878;2022-12-22T00:33:03;98742.69;;;11.21;67.38
26823;BME280;14852;51.910;8.878;2022-12-22T00:35:49;98731.47;;;11.21;67.75
26823;BME280;14852;51.910;8.878;2022-12-22T00:38:34;98730.75;;;11.19;67.82
26823;BME280;14852;51.910;8.878;2022-12-22T00:41:18;98726.34;;;11.19;67.62
26823;BME280;14852;51.910;8.878;2022-12-22T00:44:02;98724.59;;;11.20;67.42
26823;BME280;14852;51.910;8.878;2022-12-22T00:46:47;98730.63;;;11.20;67.29
26823;BME280;14852;51.910;8.878;2022-12-22T00:49:33;98718.69;;;11.18;67.60
26823;BME280;14852;51.910;8.878;2022-12-22T00:52:21;98720.38;;;11.19;67.89
26823;BME280;14852;51.910;8.878;2022-12-22T00:55:19;98715.25;;;11.17;67.58
26823;BME280;14852;51.910;8.878;2022-12-22T00:58:13;98718.81;;;11.16;67.75
26823;BME280;14852;51.910;8.878;2022-12-22T01:00:58;98709.56;;;11.12;67.42
26823;BME280;14852;51.910;8.878;2022-12-22T01:03:42;98697.50;;;11.11;67.68
26823;BME280;14852;51.910;8.878;2022-12-22T01:06:30;98706.75;;;11.15;67.71
26823;BME280;14852;51.910;8.878;2022-12-22T01:09:16;98701.53;;;11.15;67.62
26823;BME280;14852;51.910;8.878;2022-12-22T01:12:05;98698.84;;;11.17;67.38
26823;BME280;14852;51.910;8.878;2022-12-22T01:14:53;98691.13;;;11.15;67.51
26823;BME280;14852;51.910;8.878;2022-12-22T01:17:37;98696.13;;;11.18;67.94
26823;BME280;14852;51.910;8.878;2022-12-22T01:20:21;98678.63;;;11.20;67.66
26823;BME280;14852;51.910;8.878;2022-12-22T01:23:09;98675.81;;;11.23;67.44
26823;BME280;14852;51.910;8.878;2022-12-22T01:25:53;98672.28;;;11.24;67.71
26823;BME280;14852;51.910;8.878;2022-12-22T01:28:38;98671.94;;;11.29;67.62
26823;BME280;14852;51.910;8.878;2022-12-22T01:31:30;98669.00;;;11.34;67.46
26823;BME280;14852;51.910;8.878;2022-12-22T01:34:16;98660.16;;;11.36;67.89
26823;BME280;14852;51.910;8.878;2022-12-22T01:37:00;98657.22;;;11.41;67.27
26823;BME280;14852;51.910;8.878;2022-12-22T01:39:44;98656.03;;;11.45;67.23
26823;BME280;14852;51.910;8.878;2022-12-22T01:42:32;98659.38;;;11.47;67.74
26823;BME280;14852;51.910;8.878;2022-12-22T01:45:32;98656.44;;;11.51;67.60
26823;BME280;14852;51.910;8.878;2022-12-22T01:48:29;98660.69;;;11.52;67.50
26823;BME280;14852;51.910;8.878;2022-12-22T01:51:24;98653.59;;;11.54;67.47
26823;BME280;14852;51.910;8.878;2022-12-22T01:54:10;98653.47;;;11.56;67.14
26823;BME280;14852;51.910;8.878;2022-12-22T01:56:55;98651.59;;;11.58;67.44
26823;BME280;14852;51.910;8.878;2022-12-22T01:59:40;98654.19;;;11.58;67.34
26823;BME280;14852;51.910;8.878;2022-12-22T02:02:25;98647.13;;;11.60;67.26
26823;BME280;14852;51.910;8.878;2022-12-22T02:05:13;98643.34;;;11.64;67.22
26823;BME280;14852;51.910;8.878;2022-12-22T02:08:22;98628.09;;;11.71;67.37
26823;BME280;14852;51.910;8.878;2022-12-22T02:14:41;98627.38;;;11.69;67.24
26823;BME280;14852;51.910;8.878;2022-12-22T02:17:49;98621.59;;;11.65;67.69
26823;BME280;14852;51.910;8.878;2022-12-22T02:20:40;98612.97;;;11.65;67.30
26823;BME280;14852;51.910;8.878;2022-12-22T02:24:39;98615.44;;;11.66;67.20
26823;BME280;14852;51.910;8.878;2022-12-22T02:26:59;98608.31;;;11.57;67.52
26823;BME280;14852;51.910;8.878;2022-12-22T02:29:51;98606.06;;;11.52;67.63
26823;BME280;14852;51.910;8.878;2022-12-22T02:32:40;98602.03;;;11.48;67.76
26823;BME280;14852;51.910;8.878;2022-12-22T02:35:25;98597.16;;;11.44;67.88
26823;BME280;14852;51.910;8.878;2022-12-22T02:41:55;98589.00;;;11.37;67.94
26823;BME280;14852;51.910;8.878;2022-12-22T02:45:08;98584.84;;;11.35;67.91
26823;BME280;14852;51.910;8.878;2022-12-22T02:48:08;98583.06;;;11.35;68.10
26823;BME280;14852;51.910;8.878;2022-12-22T02:51:26;98579.84;;;11.32;67.60
26823;BME280;14852;51.910;8.878;2022-12-22T02:54:14;98569.00;;;11.27;67.61
26823;BME280;14852;51.910;8.878;2022-12-22T02:57:07;98568.47;;;11.21;68.13
26823;BME280;14852;51.910;8.878;2022-12-22T02:59:52;98575.91;;;11.15;67.72
26823;BME280;14852;51.910;8.878;2022-12-22T03:02:36;98567.63;;;11.10;67.91
26823;BME280;14852;51.910;8.878;2022-12-22T03:05:20;98561.00;;;11.06;67.85
26823;BME280;14852;51.910;8.878;2022-12-22T03:08:05;98555.91;;;11.04;68.17
26823;BME280;14852;51.910;8.878;2022-12-22T03:10:49;98552.81;;;10.99;67.78
26823;BME280;14852;51.910;8.878;2022-12-22T03:13:34;98553.28;;;10.93;67.73
26823;BME280;14852;51.910;8.878;2022-12-22T03:16:18;98547.97;;;10.95;67.89
26823;BME280;14852;51.910;8.878;2022-12-22T03:19:02;98544.66;;;10.93;67.61
26823;BME280;14852;51.910;8.878;2022-12-22T03:21:47;98543.91;;;10.91;68.10
26823;BME280;14852;51.910;8.878;2022-12-22T03:24:31;98532.69;;;10.90;67.58
26823;BME280;14852;51.910;8.878;2022-12-22T03:27:16;98527.59;;;10.88;67.80
26823;BME280;14852;51.910;8.878;2022-12-22T03:29:41;98527.72;;;10.87;67.59
26823;BME280;14852;51.910;8.878;2022-12-22T03:32:07;98524.53;;;10.83;67.77
26823;BME280;14852;51.910;8.878;2022-12-22T03:34:33;98524.75;;;10.80;68.04
26823;BME280;14852;51.910;8.878;2022-12-22T03:36:59;98518.81;;;10.78;67.59
26823;BME280;14852;51.910;8.878;2022-12-22T03:39:24;98519.88;;;10.76;67.63
26823;BME280;14852;51.910;8.878;2022-12-22T03:41:50;98516.78;;;10.71;67.70
26823;BME280;14852;51.910;8.878;2022-12-22T03:44:34;98513.47;;;10.69;68.04
26823;BME280;14852;51.910;8.878;2022-12-22T03:47:18;98514.63;;;10.65;67.77
26823;BME280;14852;51.910;8.878;2022-12-22T03:49:44;98511.31;;;10.63;68.00
26823;BME280;14852;51.910;8.878;2022-12-22T03:52:10;98498.44;;;10.61;68.21
26823;BME280;14852;51.910;8.878;2022-12-22T03:54:35;98500.22;;;10.61;67.79
26823;BME280;14852;51.910;8.878;2022-12-22T03:57:01;98495.97;;;10.60;67.82
26823;BME280;14852;51.910;8.878;2022-12-22T03:59:27;98495.03;;;10.61;68.19
26823;BME280;14852;51.910;8.878;2022-12-22T04:01:53;98492.44;;;10.61;68.05
26823;BME280;14852;51.910;8.878;2022-12-22T04:04:23;98487.94;;;10.63;67.98
26823;BME280;14852;51.910;8.878;2022-12-22T04:06:50;98494.06;;;10.62;68.17
26823;BME280;14852;51.910;8.878;2022-12-22T04:09:15;98492.44;;;10.61;68.14
26823;BME280;14852;51.910;8.878;2022-12-22T04:11:41;98489.84;;;10.61;68.02
26823;BME280;14852;51.910;8.878;2022-12-22T04:14:27;98483.81;;;10.60;68.07
26823;BME280;14852;51.910;8.878;2022-12-22T04:16:52;98480.38;;;10.60;67.79
26823;BME280;14852;51.910;8.878;2022-12-22T04:19:18;98476.13;;;10.59;68.22
26823;BME280;14852;51.910;8.878;2022-12-22T04:21:44;98471.97;;;10.56;68.40
26823;BME280;14852;51.910;8.878;2022-12-22T04:24:13;98472.91;;;10.55;67.97
26823;BME280;14852;51.910;8.878;2022-12-22T04:26:39;98472.19;;;10.53;68.29
26823;BME280;14852;51.910;8.878;2022-12-22T04:29:04;98467.81;;;10.53;68.15
26823;BME280;14852;51.910;8.878;2022-12-22T04:31:30;98466.16;;;10.52;68.11
26823;BME280;14852;51.910;8.878;2022-12-22T04:33:56;98456.81;;;10.50;68.34
26823;BME280;14852;51.910;8.878;2022-12-22T04:36:22;98449.66;;;10.53;68.25
26823;BME280;14852;51.910;8.878;2022-12-22T04:38:47;98460.88;;;10.54;68.25
26823;BME280;14852;51.910;8.878;2022-12-22T04:41:13;98446.22;;;10.53;68.32
26823;BME280;14852;51.910;8.878;2022-12-22T04:43:39;98446.22;;;10.53;67.95
26823;BME280;14852;51.910;8.878;2022-12-22T04:46:05;98441.03;;;10.53;68.18
26823;BME280;14852;51.910;8.878;2022-12-22T04:48:31;98435.94;;;10.51;67.99
26823;BME280;14852;51.910;8.878;2022-12-22T04:50:59;98438.53;;;10.51;68.37
26823;BME280;14852;51.910;8.878;2022-12-22T04:53:26;98442.78;;;10.52;68.18
26823;BME280;14852;51.910;8.878;2022-12-22T04:56:05;98427.22;;;10.52;68.21
26823;BME280;14852;51.910;8.878;2022-12-22T04:58:32;98431.94;;;10.47;68.28
26823;BME280;14852;51.910;8.878;2022-12-22T05:01:14;98418.00;;;10.48;68.08
26823;BME280;14852;51.910;8.878;2022-12-22T05:03:41;98419.06;;;10.46;68.48
26823;BME280;14852;51.910;8.878;2022-12-22T05:06:07;98416.44;;;10.46;68.09
26823;BME280;14852;51.910;8.878;2022-12-22T05:08:33;98412.91;;;10.47;68.26
26823;BME280;14852;51.910;8.878;2022-12-22T05:10:59;98413.84;;;10.46;68.49
26823;BME280;14852;51.910;8.878;2022-12-22T05:13:28;98413.75;;;10.47;68.50
26823;BME280;14852;51.910;8.878;2022-12-22T05:15:53;98406.91;;;10.46;68.39
26823;BME280;14852;51.910;8.878;2022-12-22T05:18:19;98400.88;;;10.46;68.45
26823;BME280;14852;51.910;8.878;2022-12-22T05:20:45;98399.09;;;10.46;68.16
26823;BME280;14852;51.910;8.878;2022-12-22T05:23:11;98397.56;;;10.44;68.14
26823;BME280;14852;51.910;8.878;2022-12-22T05:25:37;98400.25;;;10.42;68.12
26823;BME280;14852;51.910;8.878;2022-12-22T05:28:03;98393.28;;;10.43;68.48
26823;BME280;14852;51.910;8.878;2022-12-22T05:30:29;98392.38;;;10.44;68.23
26823;BME280;14852;51.910;8.878;2022-12-22T05:32:54;98389.66;;;10.45;68.61
26823;BME280;14852;51.910;8.878;2022-12-22T05:35:20;98379.28;;;10.45;68.70
26823;BME280;14852;51.910;8.878;2022-12-22T05:37:46;98385.19;;;10.47;68.71
26823;BME280;14852;51.910;8.878;2022-12-22T05:40:12;98383.31;;;10.49;68.50
26823;BME280;14852;51.910;8.878;2022-12-22T05:42:37;98385.75;;;10.51;68.46
26823;BME280;14852;51.910;8.878;2022-12-22T05:45:15;98373.38;;;10.55;68.57
26823;BME280;14852;51.910;8.878;2022-12-22T05:47:43;98376.94;;;10.53;68.42
26823;BME280;14852;51.910;8.878;2022-12-22T05:50:11;98376.09;;;10.53;68.53
26823;BME280;14852;51.910;8.878;2022-12-22T05:52:38;98374.31;;;10.53;68.10
26823;BME280;14852;51.910;8.878;2022-12-22T05:55:04;98375.16;;;10.54;68.35
26823;BME280;14852;51.910;8.878;2022-12-22T05:57:30;98371.00;;;10.51;68.58
26823;BME280;14852;51.910;8.878;2022-12-22T05:59:56;98370.19;;;10.51;68.17
26823;BME280;14852;51.910;8.878;2022-12-22T06:02:22;98364.16;;;10.50;68.32
26823;BME280;14852;51.910;8.878;2022-12-22T06:04:48;98371.13;;;10.50;68.59
26823;BME280;14852;51.910;8.878;2022-12-22T06:07:13;98370.31;;;10.49;68.32
26823;BME280;14852;51.910;8.878;2022-12-22T06:09:39;98363.34;;;10.50;68.61
26823;BME280;14852;51.910;8.878;2022-12-22T06:12:05;98360.97;;;10.47;68.48
26823;BME280;14852;51.910;8.878;2022-12-22T06:14:31;98349.88;;;10.45;68.95
26823;BME280;14852;51.910;8.878;2022-12-22T06:16:57;98355.06;;;10.45;68.77
26823;BME280;14852;51.910;8.878;2022-12-22T06:19:23;98356.13;;;10.42;68.41
26823;BME280;14852;51.910;8.878;2022-12-22T06:21:49;98359.66;;;10.41;68.49
26823;BME280;14852;51.910;8.878;2022-12-22T06:24:14;98351.03;;;10.41;68.68
26823;BME280;14852;51.910;8.878;2022-12-22T06:26:40;98349.38;;;10.40;68.54
26823;BME280;14852;51.910;8.878;2022-12-22T06:29:06;98347.50;;;10.42;68.80
26823;BME280;14852;51.910;8.878;2022-12-22T06:31:32;98344.78;;;10.43;68.58
26823;BME280;14852;51.910;8.878;2022-12-22T06:33:57;98350.00;;;10.43;68.55
26823;BME280;14852;51.910;8.878;2022-12-22T06:36:23;98343.75;;;10.46;68.56
26823;BME280;14852;51.910;8.878;2022-12-22T06:38:49;98348.81;;;10.47;68.26
26823;BME280;14852;51.910;8.878;2022-12-22T06:41:14;98342.69;;;10.48;68.65
26823;BME280;14852;51.910;8.878;2022-12-22T06:44:00;98341.03;;;10.47;68.44
26823;BME280;14852;51.910;8.878;2022-12-22T06:46:26;98336.69;;;10.48;68.47
26823;BME280;14852;51.910;8.878;2022-12-22T06:48:52;98334.91;;;10.48;68.58
26823;BME280;14852;51.910;8.878;2022-12-22T06:51:17;98334.91;;;10.48;68.54
26823;BME280;14852;51.910;8.878;2022-12-22T06:53:43;98342.69;;;10.48;68.34
26823;BME280;14852;51.910;8.878;2022-12-22T06:56:09;98341.75;;;10.49;68.64
26823;BME280;14852;51.910;8.878;2022-12-22T06:58:35;98339.38;;;10.46;68.63
26823;BME280;14852;51.910;8.878;2022-12-22T07:01:00;98338.56;;;10.46;68.83
26823;BME280;14852;51.910;8.878;2022-12-22T07:03:26;98339.50;;;10.45;68.83
26823;BME280;14852;51.910;8.878;2022-12-22T07:05:52;98337.00;;;10.43;68.91
26823;BME280;14852;51.910;8.878;2022-12-22T07:08:17;98336.88;;;10.45;68.64
26823;BME280;14852;51.910;8.878;2022-12-22T07:10:44;98341.16;;;10.46;68.79
26823;BME280;14852;51.910;8.878;2022-12-22T07:13:31;98341.16;;;10.46;68.55
26823;BME280;14852;51.910;8.878;2022-12-22T07:16:00;98337.84;;;10.44;69.10
26823;BME280;14852;51.910;8.878;2022-12-22T07:18:31;98333.47;;;10.44;68.78
26823;BME280;14852;51.910;8.878;2022-12-22T07:20:58;98330.75;;;10.46;68.85
26823;BME280;14852;51.910;8.878;2022-12-22T07:23:24;98340.09;;;10.48;69.18
26823;BME280;14852;51.910;8.878;2022-12-22T07:25:50;98337.25;;;10.51;69.02
26823;BME280;14852;51.910;8.878;2022-12-22T07:28:16;98341.28;;;10.56;68.63
26823;BME280;14852;51.910;8.878;2022-12-22T07:30:42;98345.44;;;10.58;68.89
26823;BME280;14852;51.910;8.878;2022-12-22T07:33:08;98333.03;;;10.62;68.97
26823;BME280;14852;51.910;8.878;2022-12-22T07:35:34;98338.22;;;10.62;68.62
26823;BME280;14852;51.910;8.878;2022-12-22T07:38:00;98335.28;;;10.66;68.93
26823;BME280;14852;51.910;8.878;2022-12-22T07:40:26;98334.84;;;10.72;68.69
26823;BME280;14852;51.910;8.878;2022-12-22T07:42:56;98347.34;;;10.78;68.69
26823;BME280;14852;51.910;8.878;2022-12-22T07:45:22;98333.41;;;10.79;68.33
26823;BME280;14852;51.910;8.878;2022-12-22T07:47:48;98343.09;;;10.77;68.33
26823;BME280;14852;51.910;8.878;2022-12-22T07:50:19;98346.84;;;10.73;68.74
26823;BME280;14852;51.910;8.878;2022-12-22T07:52:55;98350.28;;;10.74;68.64
26823;BME280;14852;51.910;8.878;2022-12-22T07:55:22;98343.31;;;10.74;68.79
26823;BME280;14852;51.910;8.878;2022-12-22T07:57:49;98343.56;;;10.71;68.76
26823;BME280;14852;51.910;8.878;2022-12-22T08:00:16;98343.69;;;10.70;68.96
26823;BME280;14852;51.910;8.878;2022-12-22T08:02:42;98346.28;;;10.70;68.86
26823;BME280;14852;51.910;8.878;2022-12-22T08:05:08;98344.25;;;10.73;68.48
26823;BME280;14852;51.910;8.878;2022-12-22T08:07:34;98351.59;;;10.79;68.77
26823;BME280;14852;51.910;8.878;2022-12-22T08:10:00;98362.25;;;10.87;68.60
26823;BME280;14852;51.910;8.878;2022-12-22T08:12:26;98360.84;;;10.95;68.61
26823;BME280;14852;51.910;8.878;2022-12-22T08:14:54;98360.47;;;10.99;68.60
26823;BME280;14852;51.910;8.878;2022-12-22T08:17:19;98366.28;;;11.03;68.59
26823;BME280;14852;51.910;8.878;2022-12-22T08:19:45;98373.97;;;11.04;68.57
26823;BME280;14852;51.910;8.878;2022-12-22T08:22:13;98375.84;;;11.02;68.32
26823;BME280;14852;51.910;8.878;2022-12-22T08:24:38;98374.78;;;11.05;68.30
26823;BME280;14852;51.910;8.878;2022-12-22T08:27:12;98371.16;;;11.07;68.13
26823;BME280;14852;51.910;8.878;2022-12-22T08:29:44;98365.94;;;11.07;68.37
26823;BME280;14852;51.910;8.878;2022-12-22T08:32:11;98371.47;;;11.03;68.49
26823;BME280;14852;51.910;8.878;2022-12-22T08:34:38;98369.09;;;11.00;68.52
26823;BME280;14852;51.910;8.878;2022-12-22T08:37:06;98372.53;;;11.00;68.60
26823;BME280;14852;51.910;8.878;2022-12-22T08:39:36;98382.94;;;11.00;68.78
26823;BME280;14852;51.910;8.878;2022-12-22T08:42:07;98383.75;;;11.01;68.59
26823;BME280;14852;51.910;8.878;2022-12-22T08:44:35;98386.97;;;11.04;68.50
26823;BME280;14852;51.910;8.878;2022-12-22T08:47:03;98386.84;;;11.06;68.71
26823;BME280;14852;51.910;8.878;2022-12-22T08:49:30;98382.47;;;11.06;68.50
26823;BME280;14852;51.910;8.878;2022-12-22T08:51:56;98386.59;;;11.09;68.43
26823;BME280;14852;51.910;8.878;2022-12-22T08:54:22;98394.28;;;11.10;68.46
26823;BME280;14852;51.910;8.878;2022-12-22T08:56:48;98388.03;;;11.13;68.37
26823;BME280;14852;51.910;8.878;2022-12-22T08:59:14;98395.59;;;11.16;68.23
26823;BME280;14852;51.910;8.878;2022-12-22T09:01:43;98396.06;;;11.21;68.21
26823;BME280;14852;51.910;8.878;2022-12-22T09:04:13;98393.94;;;11.26;68.62
26823;BME280;14852;51.910;8.878;2022-12-22T09:06:39;98397.84;;;11.32;68.36
26823;BME280;14852;51.910;8.878;2022-12-22T09:09:08;98405.91;;;11.40;68.19
26823;BME280;14852;51.910;8.878;2022-12-22T09:11:34;98402.22;;;11.42;68.27
26823;BME280;14852;51.910;8.878;2022-12-22T09:14:01;98411.31;;;11.48;68.12
26823;BME280;14852;51.910;8.878;2022-12-22T09:16:29;98409.78;;;11.56;68.06
26823;BME280;14852;51.910;8.878;2022-12-22T09:18:55;98407.53;;;11.63;67.94
26823;BME280;14852;51.910;8.878;2022-12-22T09:21:22;98417.22;;;11.72;67.99
26823;BME280;14852;51.910;8.878;2022-12-22T09:23:48;98408.28;;;11.76;68.39
26823;BME280;14852;51.910;8.878;2022-12-22T09:26:18;98413.69;;;11.84;68.26
26823;BME280;14852;51.910;8.878;2022-12-22T09:28:44;98420.44;;;11.87;68.49
26823;BME280;14852;51.910;8.878;2022-12-22T09:31:12;98427.88;;;11.91;68.31
26823;BME280;14852;51.910;8.878;2022-12-22T09:33:38;98425.03;;;11.94;68.17
26823;BME280;14852;51.910;8.878;2022-12-22T09:36:10;98431.66;;;11.99;68.69
26823;BME280;14852;51.910;8.878;2022-12-22T09:38:38;98434.25;;;11.99;68.52
26823;BME280;14852;51.910;8.878;2022-12-22T09:41:34;98435.41;;;12.06;68.70
26823;BME280;14852;51.910;8.878;2022-12-22T09:44:03;98444.88;;;12.07;68.63
26823;BME280;14852;51.910;8.878;2022-12-22T09:46:34;98448.91;;;12.11;68.57
26823;BME280;14852;51.910;8.878;2022-12-22T09:49:01;98461.66;;;12.14;68.80
26823;BME280;14852;51.910;8.878;2022-12-22T09:51:28;98466.75;;;12.15;68.71
26823;BME280;14852;51.910;8.878;2022-12-22T09:53:57;98461.31;;;12.18;68.67
26823;BME280;14852;51.910;8.878;2022-12-22T09:56:26;98459.41;;;12.20;68.75
26823;BME280;14852;51.910;8.878;2022-12-22T09:58:52;98473.00;;;12.24;68.71
26823;BME280;14852;51.910;8.878;2022-12-22T10:01:29;98476.69;;;12.32;69.00
26823;BME280;14852;51.910;8.878;2022-12-22T10:04:02;98479.47;;;12.41;68.80
26823;BME280;14852;51.910;8.878;2022-12-22T10:07:00;98474.25;;;12.52;68.40
26823;BME280;14852;51.910;8.878;2022-12-22T10:09:30;98474.00;;;12.55;68.40
26823;BME280;14852;51.910;8.878;2022-12-22T10:11:59;98486.53;;;12.61;68.02
26823;BME280;14852;51.910;8.878;2022-12-22T10:14:37;98484.38;;;12.66;68.50
26823;BME280;14852;51.910;8.878;2022-12-22T10:17:18;98484.94;;;12.69;68.44
26823;BME280;14852;51.910;8.878;2022-12-22T10:19:45;98490.84;;;12.72;68.11
26823;BME280;14852;51.910;8.878;2022-12-22T10:22:32;98499.84;;;12.79;68.62
26823;BME280;14852;51.910;8.878;2022-12-22T10:25:04;98493.69;;;12.80;68.17
26823;BME280;14852;51.910;8.878;2022-12-22T10:27:34;98491.53;;;12.85;68.13
26823;BME280;14852;51.910;8.878;2022-12-22T10:30:23;98484.03;;;12.91;68.35
26823;BME280;14852;51.910;8.878;2022-12-22T10:35:57;98491.88;;;13.12;68.03
26823;BME280;14852;51.910;8.878;2022-12-22T10:38:34;98495.53;;;13.21;67.61
26823;BME280;14852;51.910;8.878;2022-12-22T10:41:17;98505.78;;;13.33;67.65
26823;BME280;14852;51.910;8.878;2022-12-22T10:43:50;98504.75;;;13.46;67.54
26823;BME280;14852;51.910;8.878;2022-12-22T10:46:18;98512.16;;;13.50;67.12
26823;BME280;14852;51.910;8.878;2022-12-22T10:48:44;98508.47;;;13.53;67.76
26823;BME280;14852;51.910;8.878;2022-12-22T10:51:12;98517.72;;;13.57;67.48
26823;BME280;14852;51.910;8.878;2022-12-22T10:56:27;98528.41;;;13.54;67.57
26823;BME280;14852;51.910;8.878;2022-12-22T11:01:35;98534.84;;;13.50;67.98
26823;BME280;14852;51.910;8.878;2022-12-22T11:04:26;98533.75;;;13.52;67.75
26823;BME280;14852;51.910;8.878;2022-12-22T11:06:54;98543.75;;;13.47;67.68
26823;BME280;14852;51.910;8.878;2022-12-22T11:09:20;98547.69;;;13.41;67.82
26823;BME280;14852;51.910;8.878;2022-12-22T11:11:52;98550.81;;;13.35;67.91
26823;BME280;14852;51.910;8.878;2022-12-22T11:17:44;98556.81;;;13.26;68.00
26823;BME280;14852;51.910;8.878;2022-12-22T11:29:39;98582.13;;;13.03;68.10
26823;BME280;14852;51.910;8.878;2022-12-22T11:32:45;98591.38;;;12.96;68.54
26823;BME280;14852;51.910;8.878;2022-12-22T11:35:48;98593.38;;;12.93;68.53
26823;BME280;14852;51.910;8.878;2022-12-22T11:38:36;98587.84;;;12.86;68.26
26823;BME280;14852;51.910;8.878;2022-12-22T11:47:50;98612.50;;;12.82;68.25
26823;BME280;14852;51.910;8.878;2022-12-22T11:50:41;98624.03;;;12.80;68.38
26823;BME280;14852;51.910;8.878;2022-12-22T11:56:23;98627.09;;;12.74;68.59
26823;BME280;14852;51.910;8.878;2022-12-22T12:05:37;98642.28;;;12.68;68.59
26823;BME280;14852;51.910;8.878;2022-12-22T12:14:05;98633.88;;;12.65;68.45
26823;BME280;14852;51.910;8.878;2022-12-22T12:22:03;98628.88;;;12.73;68.13
26823;BME280;14852;51.910;8.878;2022-12-22T12:27:27;98641.06;;;12.73;67.84
26823;BME280;14852;51.910;8.878;2022-12-22T12:30:20;98663.13;;;12.80;67.93
26823;BME280;14852;51.910;8.878;2022-12-22T12:33:00;98664.91;;;12.79;67.61
26823;BME280;14852;51.910;8.878;2022-12-22T12:43:47;98672.34;;;12.73;67.63
26823;BME280;14852;51.910;8.878;2022-12-22T12:49:33;98688.38;;;12.68;67.97
26823;BME280;14852;51.910;8.878;2022-12-22T12:51:51;98692.16;;;12.64;67.70
26823;BME280;14852;51.910;8.878;2022-12-22T13:08:09;98702.34;;;12.45;67.59
26823;BME280;14852;51.910;8.878;2022-12-22T13:21:20;98715.13;;;12.59;67.29
26823;BME280;14852;51.910;8.878;2022-12-22T13:26:37;98714.88;;;12.51;67.11
26823;BME280;14852;51.910;8.878;2022-12-22T13:29:38;98716.88;;;12.47;67.29
26823;BME280;14852;51.910;8.878;2022-12-22T13:32:34;98716.66;;;12.39;67.55
26823;BME280;14852;51.910;8.878;2022-12-22T13:35:20;98714.75;;;12.30;67.36
26823;BME280;14852;51.910;8.878;2022-12-22T13:37:49;98713.31;;;12.26;67.46
26823;BME280;14852;51.910;8.878;2022-12-22T13:40:25;98711.75;;;12.23;67.44
26823;BME280;14852;51.910;8.878;2022-12-22T13:43:01;98707.53;;;12.22;67.05
26823;BME280;14852;51.910;8.878;2022-12-22T13:45:50;98720.19;;;12.27;67.18
26823;BME280;14852;51.910;8.878;2022-12-22T13:48:42;98712.75;;;12.22;67.04
26823;BME280;14852;51.910;8.878;2022-12-22T13:51:24;98727.03;;;12.17;67.16
26823;BME280;14852;51.910;8.878;2022-12-22T13:53:59;98730.34;;;12.08;66.97
26823;BME280;14852;51.910;8.878;2022-12-22T13:56:51;98729.94;;;12.01;67.44
26823;BME280;14852;51.910;8.878;2022-12-22T13:59:43;98734.78;;;11.94;67.49
26823;BME280;14852;51.910;8.878;2022-12-22T14:04:40;98744.56;;;11.80;67.33
26823;BME280;14852;51.910;8.878;2022-12-22T14:07:18;98750.19;;;11.74;67.41
26823;BME280;14852;51.910;8.878;2022-12-22T14:09:49;98757.69;;;11.66;67.38
26823;BME280;14852;51.910;8.878;2022-12-22T14:12:29;98749.53;;;11.59;67.60
26823;BME280;14852;51.910;8.878;2022-12-22T14:14:58;98750.91;;;11.52;67.61
26823;BME280;14852;51.910;8.878;2022-12-22T14:17:36;98756.44;;;11.47;67.55
26823;BME280;14852;51.910;8.878;2022-12-22T14:20:16;98763.72;;;11.42;67.98
26823;BME280;14852;51.910;8.878;2022-12-22T14:23:17;98761.38;;;11.39;67.59
26823;BME280;14852;51.910;8.878;2022-12-22T14:25:46;98763.47;;;11.34;67.66
26823;BME280;14852;51.910;8.878;2022-12-22T14:28:39;98776.56;;;11.33;67.82
26823;BME280;14852;51.910;8.878;2022-12-22T14:31:11;98768.47;;;11.24;67.66
26823;BME280;14852;51.910;8.878;2022-12-22T14:33:37;98779.19;;;11.20;67.71
26823;BME280;14852;51.910;8.878;2022-12-22T14:38:51;98791.06;;;11.11;67.71
26823;BME280;14852;51.910;8.878;2022-12-22T14:44:22;98789.75;;;11.06;67.74
26823;BME280;14852;51.910;8.878;2022-12-22T14:49:59;98797.84;;;11.01;67.43
26823;BME280;14852;51.910;8.878;2022-12-22T14:52:52;98804.19;;;10.97;67.78
26823;BME280;14852;51.910;8.878;2022-12-22T14:55:39;98811.28;;;10.95;67.70
26823;BME280;14852;51.910;8.878;2022-12-22T14:58:25;98813.38;;;10.90;67.61
26823;BME280;14852;51.910;8.878;2022-12-22T15:01:21;98821.47;;;10.85;67.74
26823;BME280;14852;51.910;8.878;2022-12-22T15:04:00;98820.13;;;10.80;68.06
26823;BME280;14852;51.910;8.878;2022-12-22T15:09:07;98822.44;;;10.72;67.81
26823;BME280;14852;51.910;8.878;2022-12-22T15:11:41;98819.28;;;10.67;67.91
26823;BME280;14852;51.910;8.878;2022-12-22T15:14:13;98821.16;;;10.65;68.20
26823;BME280;14852;51.910;8.878;2022-12-22T15:16:40;98816.38;;;10.59;68.13
26823;BME280;14852;51.910;8.878;2022-12-22T15:19:07;98817.50;;;10.55;67.90
26823;BME280;14852;51.910;8.878;2022-12-22T15:21:35;98817.72;;;10.51;68.08
26823;BME280;14852;51.910;8.878;2022-12-22T15:24:01;98818.88;;;10.47;67.97
26823;BME280;14852;51.910;8.878;2022-12-22T15:26:28;98813.88;;;10.44;67.80
26823;BME280;14852;51.910;8.878;2022-12-22T15:28:53;98818.44;;;10.41;68.17
26823;BME280;14852;51.910;8.878;2022-12-22T15:31:19;98813.34;;;10.39;68.02
26823;BME280;14852;51.910;8.878;2022-12-22T15:33:45;98822.28;;;10.35;68.19